sensor_id;sensor_type;location;lat;lon;timestamp;P1;durP1;ratioP1;P2;durP2;ratioP2
58567;SDS011;44354;46.192;-1.076;2023-02-15T00:01:40;12.10;;;11.50;;
58567;SDS011;44354;46.192;-1.076;2023-02-15T00:04:06;12.35;;;11.75;;
58567;SDS011;44354;46.192;-1.076;2023-02-15T00:06:33;11.77;;;11.18;;
58567;SDS011;44354;46.192;-1.076;2023-02-15T00:08:59;12.00;;;11.40;;
58567;SDS011;44354;46.192;-1.076;2023-02-15T00:11:25;12.50;;;11.90;;
58567;SDS011;44354;46.192;-1.076;2023-02-15T00:14:19;13.40;;;12.70;;
58567;SDS011;44354;46.192;-1.076;2023-02-15T00:16:46;12.25;;;11.65;;
58567;SDS011;44354;46.192;-1.076;2023-02-15T00:19:14;11.05;;;10.55;;
58567;SDS011;44354;46.192;-1.076;2023-02-15T00:21:41;12.35;;;11.75;;
58567;SDS011;44354;46.192;-1.076;2023-02-15T00:24:08;11.88;;;11.27;;
58567;SDS011;44354;46.192;-1.076;2023-02-15T00:26:35;10.48;;;9.98;;
58567;SDS011;44354;46.192;-1.076;2023-02-15T00:29:03;12.32;;;11.55;;
58567;SDS011;44354;46.192;-1.076;2023-02-15T00:31:30;10.93;;;10.43;;
58567;SDS011;44354;46.192;-1.076;2023-02-15T00:34:03;25.40;;;23.23;;
58567;SDS011;44354;46.192;-1.076;2023-02-15T00:36:36;11.00;;;10.43;;
58567;SDS011;44354;46.192;-1.076;2023-02-15T00:39:02;11.55;;;10.95;;
58567;SDS011;44354;46.192;-1.076;2023-02-15T00:41:29;12.27;;;11.68;;
58567;SDS011;44354;46.192;-1.076;2023-02-15T00:43:55;11.10;;;10.57;;
58567;SDS011;44354;46.192;-1.076;2023-02-15T00:46:21;11.95;;;11.35;;
58567;SDS011;44354;46.192;-1.076;2023-02-15T00:48:46;13.10;;;12.27;;
58567;SDS011;44354;46.192;-1.076;2023-02-15T00:51:12;10.98;;;10.40;;
58567;SDS011;44354;46.192;-1.076;2023-02-15T00:53:38;12.38;;;11.77;;
58567;SDS011;44354;46.192;-1.076;2023-02-15T00:56:04;12.98;;;12.27;;
58567;SDS011;44354;46.192;-1.076;2023-02-15T00:58:29;11.98;;;11.38;;
58567;SDS011;44354;46.192;-1.076;2023-02-15T01:01:01;11.10;;;10.57;;
58567;SDS011;44354;46.192;-1.076;2023-02-15T01:03:29;11.60;;;11.00;;
58567;SDS011;44354;46.192;-1.076;2023-02-15T01:05:55;10.27;;;9.77;;
58567;SDS011;44354;46.192;-1.076;2023-02-15T01:08:21;11.35;;;10.75;;
58567;SDS011;44354;46.192;-1.076;2023-02-15T01:10:47;11.80;;;11.20;;
58567;SDS011;44354;46.192;-1.076;2023-02-15T01:13:13;12.65;;;12.05;;
58567;SDS011;44354;46.192;-1.076;2023-02-15T01:15:40;10.80;;;10.30;;
58567;SDS011;44354;46.192;-1.076;2023-02-15T01:18:06;10.65;;;10.15;;
58567;SDS011;44354;46.192;-1.076;2023-02-15T01:20:33;11.65;;;11.05;;
58567;SDS011;44354;46.192;-1.076;2023-02-15T01:23:03;12.23;;;11.63;;
58567;SDS011;44354;46.192;-1.076;2023-02-15T01:25:32;11.35;;;10.77;;
58567;SDS011;44354;46.192;-1.076;2023-02-15T01:27:58;11.98;;;11.38;;
58567;SDS011;44354;46.192;-1.076;2023-02-15T01:30:24;12.10;;;11.50;;
58567;SDS011;44354;46.192;-1.076;2023-02-15T01:32:50;11.02;;;10.50;;
58567;SDS011;44354;46.192;-1.076;2023-02-15T01:35:15;10.82;;;10.32;;
58567;SDS011;44354;46.192;-1.076;2023-02-15T01:37:41;12.68;;;11.68;;
58567;SDS011;44354;46.192;-1.076;2023-02-15T01:40:08;11.65;;;11.05;;
58567;SDS011;44354;46.192;-1.076;2023-02-15T01:42:38;12.13;;;11.50;;
58567;SDS011;44354;46.192;-1.076;2023-02-15T01:45:13;10.88;;;10.38;;
58567;SDS011;44354;46.192;-1.076;2023-02-15T01:48:15;10.90;;;10.40;;
58567;SDS011;44354;46.192;-1.076;2023-02-15T01:50:47;15.57;;;14.52;;
58567;SDS011;44354;46.192;-1.076;2023-02-15T01:53:27;11.85;;;11.25;;
58567;SDS011;44354;46.192;-1.076;2023-02-15T01:56:02;11.35;;;10.75;;
58567;SDS011;44354;46.192;-1.076;2023-02-15T01:58:33;13.87;;;13.07;;
58567;SDS011;44354;46.192;-1.076;2023-02-15T02:01:00;12.05;;;11.45;;
58567;SDS011;44354;46.192;-1.076;2023-02-15T02:06:12;11.07;;;10.55;;
58567;SDS011;44354;46.192;-1.076;2023-02-15T02:08:38;10.70;;;10.20;;
58567;SDS011;44354;46.192;-1.076;2023-02-15T02:11:09;13.00;;;12.32;;
58567;SDS011;44354;46.192;-1.076;2023-02-15T02:13:36;12.20;;;11.57;;
58567;SDS011;44354;46.192;-1.076;2023-02-15T02:16:06;13.00;;;12.35;;
58567;SDS011;44354;46.192;-1.076;2023-02-15T02:39:02;10.98;;;10.48;;
58567;SDS011;44354;46.192;-1.076;2023-02-15T02:42:05;11.20;;;10.60;;
58567;SDS011;44354;46.192;-1.076;2023-02-15T02:44:48;11.52;;;10.93;;
58567;SDS011;44354;46.192;-1.076;2023-02-15T02:47:26;10.65;;;10.15;;
58567;SDS011;44354;46.192;-1.076;2023-02-15T02:49:59;11.27;;;10.70;;
58567;SDS011;44354;46.192;-1.076;2023-02-15T02:55:02;12.32;;;11.73;;
58567;SDS011;44354;46.192;-1.076;2023-02-15T02:57:31;11.10;;;10.57;;
58567;SDS011;44354;46.192;-1.076;2023-02-15T02:59:58;12.68;;;12.05;;
58567;SDS011;44354;46.192;-1.076;2023-02-15T03:02:29;11.05;;;10.55;;
58567;SDS011;44354;46.192;-1.076;2023-02-15T03:05:05;11.45;;;10.85;;
58567;SDS011;44354;46.192;-1.076;2023-02-15T03:07:35;12.18;;;11.57;;
58567;SDS011;44354;46.192;-1.076;2023-02-15T03:10:02;12.07;;;11.48;;
58567;SDS011;44354;46.192;-1.076;2023-02-15T03:12:34;11.77;;;11.18;;
58567;SDS011;44354;46.192;-1.076;2023-02-15T03:15:04;13.15;;;12.45;;
58567;SDS011;44354;46.192;-1.076;2023-02-15T03:17:31;12.65;;;12.05;;
58567;SDS011;44354;46.192;-1.076;2023-02-15T03:20:01;13.38;;;12.68;;
58567;SDS011;44354;46.192;-1.076;2023-02-15T03:22:33;12.05;;;11.45;;
58567;SDS011;44354;46.192;-1.076;2023-02-15T03:25:27;11.70;;;11.10;;
58567;SDS011;44354;46.192;-1.076;2023-02-15T03:28:13;12.10;;;11.50;;
58567;SDS011;44354;46.192;-1.076;2023-02-15T03:30:44;11.33;;;10.77;;
58567;SDS011;44354;46.192;-1.076;2023-02-15T03:33:14;11.88;;;11.27;;
58567;SDS011;44354;46.192;-1.076;2023-02-15T03:35:52;14.43;;;13.73;;
58567;SDS011;44354;46.192;-1.076;2023-02-15T03:39:05;13.27;;;12.57;;
58567;SDS011;44354;46.192;-1.076;2023-02-15T03:41:30;13.07;;;12.40;;
58567;SDS011;44354;46.192;-1.076;2023-02-15T03:44:06;12.65;;;12.05;;
58567;SDS011;44354;46.192;-1.076;2023-02-15T03:46:52;12.20;;;11.60;;
58567;SDS011;44354;46.192;-1.076;2023-02-15T03:49:32;13.35;;;12.65;;
58567;SDS011;44354;46.192;-1.076;2023-02-15T03:52:15;13.50;;;12.80;;
58567;SDS011;44354;46.192;-1.076;2023-02-15T03:54:42;13.77;;;12.98;;
58567;SDS011;44354;46.192;-1.076;2023-02-15T03:57:20;13.00;;;12.35;;
58567;SDS011;44354;46.192;-1.076;2023-02-15T04:00:09;14.43;;;13.73;;
58567;SDS011;44354;46.192;-1.076;2023-02-15T04:03:17;13.43;;;12.73;;
58567;SDS011;44354;46.192;-1.076;2023-02-15T04:05:59;13.93;;;13.23;;
58567;SDS011;44354;46.192;-1.076;2023-02-15T04:08:27;12.90;;;12.25;;
58567;SDS011;44354;46.192;-1.076;2023-02-15T04:11:11;14.05;;;13.35;;
58567;SDS011;44354;46.192;-1.076;2023-02-15T04:13:37;14.27;;;13.57;;
58567;SDS011;44354;46.192;-1.076;2023-02-15T04:16:03;15.43;;;14.65;;
58567;SDS011;44354;46.192;-1.076;2023-02-15T04:18:30;14.20;;;13.50;;
58567;SDS011;44354;46.192;-1.076;2023-02-15T04:21:22;14.63;;;13.90;;
58567;SDS011;44354;46.192;-1.076;2023-02-15T04:24:07;15.50;;;14.70;;
58567;SDS011;44354;46.192;-1.076;2023-02-15T04:26:52;15.73;;;14.93;;
58567;SDS011;44354;46.192;-1.076;2023-02-15T04:29:18;15.30;;;14.50;;
58567;SDS011;44354;46.192;-1.076;2023-02-15T04:31:45;16.45;;;15.65;;
58567;SDS011;44354;46.192;-1.076;2023-02-15T04:34:11;15.88;;;15.07;;
58567;SDS011;44354;46.192;-1.076;2023-02-15T04:36:38;19.35;;;18.13;;
58567;SDS011;44354;46.192;-1.076;2023-02-15T04:39:04;16.08;;;15.27;;
58567;SDS011;44354;46.192;-1.076;2023-02-15T04:41:30;17.48;;;16.58;;
58567;SDS011;44354;46.192;-1.076;2023-02-15T04:43:55;16.95;;;16.05;;
58567;SDS011;44354;46.192;-1.076;2023-02-15T04:46:22;17.25;;;16.35;;
58567;SDS011;44354;46.192;-1.076;2023-02-15T04:48:47;19.98;;;18.88;;
58567;SDS011;44354;46.192;-1.076;2023-02-15T04:51:13;20.00;;;19.00;;
58567;SDS011;44354;46.192;-1.076;2023-02-15T04:53:39;18.70;;;17.60;;
58567;SDS011;44354;46.192;-1.076;2023-02-15T04:56:04;18.10;;;17.20;;
58567;SDS011;44354;46.192;-1.076;2023-02-15T04:58:30;19.77;;;18.77;;
58567;SDS011;44354;46.192;-1.076;2023-02-15T05:00:56;20.15;;;19.15;;
58567;SDS011;44354;46.192;-1.076;2023-02-15T05:03:22;22.13;;;21.02;;
58567;SDS011;44354;46.192;-1.076;2023-02-15T05:05:49;21.48;;;20.38;;
58567;SDS011;44354;46.192;-1.076;2023-02-15T05:08:14;20.27;;;19.25;;
58567;SDS011;44354;46.192;-1.076;2023-02-15T05:10:40;21.60;;;20.50;;
58567;SDS011;44354;46.192;-1.076;2023-02-15T05:13:06;21.40;;;20.30;;
58567;SDS011;44354;46.192;-1.076;2023-02-15T05:15:31;20.73;;;19.65;;
58567;SDS011;44354;46.192;-1.076;2023-02-15T05:17:57;21.50;;;20.40;;
58567;SDS011;44354;46.192;-1.076;2023-02-15T05:20:23;21.70;;;20.60;;
58567;SDS011;44354;46.192;-1.076;2023-02-15T05:22:49;20.95;;;19.85;;
58567;SDS011;44354;46.192;-1.076;2023-02-15T05:25:19;20.70;;;19.63;;
58567;SDS011;44354;46.192;-1.076;2023-02-15T05:28:03;26.15;;;24.77;;
58567;SDS011;44354;46.192;-1.076;2023-02-15T05:30:44;22.38;;;21.20;;
58567;SDS011;44354;46.192;-1.076;2023-02-15T05:33:11;21.70;;;20.60;;
58567;SDS011;44354;46.192;-1.076;2023-02-15T05:35:37;20.65;;;19.55;;
58567;SDS011;44354;46.192;-1.076;2023-02-15T05:38:03;21.63;;;20.52;;
58567;SDS011;44354;46.192;-1.076;2023-02-15T05:40:28;21.80;;;20.70;;
58567;SDS011;44354;46.192;-1.076;2023-02-15T05:42:54;20.98;;;19.88;;
58567;SDS011;44354;46.192;-1.076;2023-02-15T05:45:21;19.85;;;18.80;;
58567;SDS011;44354;46.192;-1.076;2023-02-15T05:47:47;20.40;;;19.35;;
58567;SDS011;44354;46.192;-1.076;2023-02-15T05:50:12;22.65;;;21.45;;
58567;SDS011;44354;46.192;-1.076;2023-02-15T05:52:38;20.65;;;19.55;;
58567;SDS011;44354;46.192;-1.076;2023-02-15T05:55:04;22.15;;;21.05;;
58567;SDS011;44354;46.192;-1.076;2023-02-15T05:57:30;20.42;;;19.40;;
58567;SDS011;44354;46.192;-1.076;2023-02-15T05:59:56;21.02;;;19.83;;
58567;SDS011;44354;46.192;-1.076;2023-02-15T06:02:22;21.27;;;20.17;;
58567;SDS011;44354;46.192;-1.076;2023-02-15T06:04:47;21.42;;;20.33;;
58567;SDS011;44354;46.192;-1.076;2023-02-15T06:07:13;20.80;;;19.70;;
58567;SDS011;44354;46.192;-1.076;2023-02-15T06:09:39;21.42;;;20.33;;
58567;SDS011;44354;46.192;-1.076;2023-02-15T06:12:05;21.40;;;20.30;;
58567;SDS011;44354;46.192;-1.076;2023-02-15T06:14:30;20.52;;;19.48;;
58567;SDS011;44354;46.192;-1.076;2023-02-15T06:16:56;21.75;;;20.65;;
58567;SDS011;44354;46.192;-1.076;2023-02-15T06:19:22;23.13;;;21.92;;
58567;SDS011;44354;46.192;-1.076;2023-02-15T06:21:48;19.10;;;18.10;;
58567;SDS011;44354;46.192;-1.076;2023-02-15T06:24:14;20.80;;;19.70;;
58567;SDS011;44354;46.192;-1.076;2023-02-15T06:26:40;20.75;;;19.65;;
58567;SDS011;44354;46.192;-1.076;2023-02-15T06:29:06;21.13;;;20.02;;
58567;SDS011;44354;46.192;-1.076;2023-02-15T06:31:31;21.88;;;20.77;;
58567;SDS011;44354;46.192;-1.076;2023-02-15T06:33:57;23.08;;;21.77;;
58567;SDS011;44354;46.192;-1.076;2023-02-15T06:36:29;22.90;;;21.70;;
58567;SDS011;44354;46.192;-1.076;2023-02-15T06:38:55;22.67;;;21.48;;
58567;SDS011;44354;46.192;-1.076;2023-02-15T06:41:21;23.50;;;22.30;;
58567;SDS011;44354;46.192;-1.076;2023-02-15T06:43:48;25.33;;;22.92;;
58567;SDS011;44354;46.192;-1.076;2023-02-15T06:46:14;23.50;;;22.30;;
58567;SDS011;44354;46.192;-1.076;2023-02-15T06:48:39;23.27;;;22.08;;
58567;SDS011;44354;46.192;-1.076;2023-02-15T06:51:06;20.92;;;19.83;;
58567;SDS011;44354;46.192;-1.076;2023-02-15T06:53:32;21.67;;;20.55;;
58567;SDS011;44354;46.192;-1.076;2023-02-15T06:56:05;21.77;;;20.67;;
58567;SDS011;44354;46.192;-1.076;2023-02-15T06:58:33;21.90;;;20.80;;
58567;SDS011;44354;46.192;-1.076;2023-02-15T07:01:06;21.98;;;20.88;;
58567;SDS011;44354;46.192;-1.076;2023-02-15T07:03:33;23.40;;;22.20;;
58567;SDS011;44354;46.192;-1.076;2023-02-15T07:06:00;22.67;;;21.48;;
58567;SDS011;44354;46.192;-1.076;2023-02-15T07:08:28;22.67;;;21.48;;
58567;SDS011;44354;46.192;-1.076;2023-02-15T07:10:54;22.83;;;21.63;;
58567;SDS011;44354;46.192;-1.076;2023-02-15T07:13:41;23.63;;;22.42;;
58567;SDS011;44354;46.192;-1.076;2023-02-15T07:16:07;22.45;;;21.27;;
58567;SDS011;44354;46.192;-1.076;2023-02-15T07:18:34;23.92;;;22.73;;
58567;SDS011;44354;46.192;-1.076;2023-02-15T07:21:00;22.80;;;21.60;;
58567;SDS011;44354;46.192;-1.076;2023-02-15T07:23:26;25.15;;;23.85;;
58567;SDS011;44354;46.192;-1.076;2023-02-15T07:25:58;25.00;;;23.70;;
58567;SDS011;44354;46.192;-1.076;2023-02-15T07:28:24;22.20;;;21.10;;
58567;SDS011;44354;46.192;-1.076;2023-02-15T07:30:50;24.30;;;23.02;;
58567;SDS011;44354;46.192;-1.076;2023-02-15T07:33:16;24.33;;;23.05;;
58567;SDS011;44354;46.192;-1.076;2023-02-15T07:35:48;24.42;;;23.13;;
58567;SDS011;44354;46.192;-1.076;2023-02-15T07:38:14;23.95;;;22.75;;
58567;SDS011;44354;46.192;-1.076;2023-02-15T07:40:40;23.33;;;22.13;;
58567;SDS011;44354;46.192;-1.076;2023-02-15T07:43:05;23.08;;;21.88;;
58567;SDS011;44354;46.192;-1.076;2023-02-15T07:45:31;22.90;;;21.70;;
58567;SDS011;44354;46.192;-1.076;2023-02-15T07:47:57;23.85;;;22.65;;
58567;SDS011;44354;46.192;-1.076;2023-02-15T07:50:22;24.00;;;22.70;;
58567;SDS011;44354;46.192;-1.076;2023-02-15T07:52:48;21.80;;;20.70;;
58567;SDS011;44354;46.192;-1.076;2023-02-15T07:55:14;24.08;;;22.85;;
58567;SDS011;44354;46.192;-1.076;2023-02-15T07:57:44;23.67;;;22.48;;
58567;SDS011;44354;46.192;-1.076;2023-02-15T08:00:14;24.10;;;22.88;;
58567;SDS011;44354;46.192;-1.076;2023-02-15T08:02:42;25.27;;;23.98;;
58567;SDS011;44354;46.192;-1.076;2023-02-15T08:05:12;23.23;;;21.92;;
58567;SDS011;44354;46.192;-1.076;2023-02-15T08:07:38;23.05;;;21.85;;
58567;SDS011;44354;46.192;-1.076;2023-02-15T08:10:04;23.10;;;21.90;;
58567;SDS011;44354;46.192;-1.076;2023-02-15T08:12:30;23.60;;;22.40;;
58567;SDS011;44354;46.192;-1.076;2023-02-15T08:14:55;22.83;;;21.63;;
58567;SDS011;44354;46.192;-1.076;2023-02-15T08:17:21;25.90;;;24.50;;
58567;SDS011;44354;46.192;-1.076;2023-02-15T08:19:47;26.40;;;25.00;;
58567;SDS011;44354;46.192;-1.076;2023-02-15T08:22:13;25.42;;;24.13;;
58567;SDS011;44354;46.192;-1.076;2023-02-15T08:24:39;42.55;;;39.88;;
58567;SDS011;44354;46.192;-1.076;2023-02-15T08:27:07;24.88;;;23.50;;
58567;SDS011;44354;46.192;-1.076;2023-02-15T08:29:35;28.65;;;27.15;;
58567;SDS011;44354;46.192;-1.076;2023-02-15T08:32:06;25.20;;;23.75;;
58567;SDS011;44354;46.192;-1.076;2023-02-15T08:34:35;26.63;;;24.88;;
58567;SDS011;44354;46.192;-1.076;2023-02-15T08:37:03;26.40;;;25.00;;
58567;SDS011;44354;46.192;-1.076;2023-02-15T08:39:29;24.40;;;23.15;;
58567;SDS011;44354;46.192;-1.076;2023-02-15T08:41:54;26.33;;;24.92;;
58567;SDS011;44354;46.192;-1.076;2023-02-15T08:44:20;27.40;;;25.95;;
58567;SDS011;44354;46.192;-1.076;2023-02-15T08:46:46;25.88;;;24.55;;
58567;SDS011;44354;46.192;-1.076;2023-02-15T08:49:15;24.83;;;23.52;;
58567;SDS011;44354;46.192;-1.076;2023-02-15T08:51:43;25.52;;;23.45;;
58567;SDS011;44354;46.192;-1.076;2023-02-15T08:54:11;24.73;;;23.42;;
58567;SDS011;44354;46.192;-1.076;2023-02-15T08:56:39;25.30;;;23.90;;
58567;SDS011;44354;46.192;-1.076;2023-02-15T08:59:07;25.73;;;24.38;;
58567;SDS011;44354;46.192;-1.076;2023-02-15T09:01:41;23.85;;;22.65;;
58567;SDS011;44354;46.192;-1.076;2023-02-15T09:04:07;23.13;;;21.92;;
58567;SDS011;44354;46.192;-1.076;2023-02-15T09:06:38;24.02;;;22.83;;
58567;SDS011;44354;46.192;-1.076;2023-02-15T09:09:05;23.45;;;22.25;;
58567;SDS011;44354;46.192;-1.076;2023-02-15T09:11:36;24.30;;;23.02;;
58567;SDS011;44354;46.192;-1.076;2023-02-15T09:14:04;22.42;;;21.27;;
58567;SDS011;44354;46.192;-1.076;2023-02-15T09:16:33;23.27;;;22.00;;
58567;SDS011;44354;46.192;-1.076;2023-02-15T09:19:00;21.35;;;20.25;;
58567;SDS011;44354;46.192;-1.076;2023-02-15T09:21:27;20.65;;;19.55;;
58567;SDS011;44354;46.192;-1.076;2023-02-15T09:24:00;24.75;;;23.38;;
58567;SDS011;44354;46.192;-1.076;2023-02-15T09:26:28;20.30;;;19.20;;
58567;SDS011;44354;46.192;-1.076;2023-02-15T09:28:56;23.27;;;22.08;;
58567;SDS011;44354;46.192;-1.076;2023-02-15T09:31:28;21.83;;;20.70;;
58567;SDS011;44354;46.192;-1.076;2023-02-15T09:33:59;21.55;;;20.45;;
58567;SDS011;44354;46.192;-1.076;2023-02-15T09:36:28;20.83;;;19.73;;
58567;SDS011;44354;46.192;-1.076;2023-02-15T10:02:19;16.13;;;15.32;;
58567;SDS011;44354;46.192;-1.076;2023-02-15T10:04:58;16.45;;;15.65;;
58567;SDS011;44354;46.192;-1.076;2023-02-15T10:08:30;16.73;;;15.88;;
58567;SDS011;44354;46.192;-1.076;2023-02-15T10:15:44;15.10;;;14.20;;
58567;SDS011;44354;46.192;-1.076;2023-02-15T10:26:20;15.95;;;15.05;;
58567;SDS011;44354;46.192;-1.076;2023-02-15T10:28:50;13.48;;;12.77;;
58567;SDS011;44354;46.192;-1.076;2023-02-15T10:31:24;13.15;;;12.45;;
58567;SDS011;44354;46.192;-1.076;2023-02-15T10:34:08;11.95;;;11.35;;
58567;SDS011;44354;46.192;-1.076;2023-02-15T10:42:20;13.02;;;12.38;;
58567;SDS011;44354;46.192;-1.076;2023-02-15T10:55:46;9.93;;;9.43;;
58567;SDS011;44354;46.192;-1.076;2023-02-15T11:01:18;9.98;;;9.48;;
58567;SDS011;44354;46.192;-1.076;2023-02-15T11:06:35;13.90;;;12.73;;
58567;SDS011;44354;46.192;-1.076;2023-02-15T11:09:08;10.45;;;9.95;;
58567;SDS011;44354;46.192;-1.076;2023-02-15T11:11:38;10.90;;;10.40;;
58567;SDS011;44354;46.192;-1.076;2023-02-15T11:14:13;9.18;;;8.77;;
58567;SDS011;44354;46.192;-1.076;2023-02-15T11:16:49;11.07;;;10.52;;
58567;SDS011;44354;46.192;-1.076;2023-02-15T11:19:25;11.75;;;11.05;;
58567;SDS011;44354;46.192;-1.076;2023-02-15T11:22:01;9.38;;;8.88;;
58567;SDS011;44354;46.192;-1.076;2023-02-15T11:24:30;10.65;;;10.15;;
58567;SDS011;44354;46.192;-1.076;2023-02-15T11:27:04;10.43;;;9.93;;
58567;SDS011;44354;46.192;-1.076;2023-02-15T11:32:45;10.50;;;10.00;;
58567;SDS011;44354;46.192;-1.076;2023-02-15T11:35:20;12.38;;;11.73;;
58567;SDS011;44354;46.192;-1.076;2023-02-15T11:38:27;10.50;;;10.00;;
58567;SDS011;44354;46.192;-1.076;2023-02-15T11:40:54;10.55;;;9.95;;
58567;SDS011;44354;46.192;-1.076;2023-02-15T11:46:13;12.90;;;12.20;;
58567;SDS011;44354;46.192;-1.076;2023-02-15T11:48:39;9.38;;;8.93;;
58567;SDS011;44354;46.192;-1.076;2023-02-15T11:51:08;10.13;;;9.63;;
58567;SDS011;44354;46.192;-1.076;2023-02-15T11:53:37;9.30;;;8.80;;
58567;SDS011;44354;46.192;-1.076;2023-02-15T11:56:04;9.65;;;9.15;;
58567;SDS011;44354;46.192;-1.076;2023-02-15T12:01:10;8.48;;;8.07;;
58567;SDS011;44354;46.192;-1.076;2023-02-15T12:06:11;9.90;;;9.40;;
58567;SDS011;44354;46.192;-1.076;2023-02-15T12:08:44;7.93;;;7.53;;
58567;SDS011;44354;46.192;-1.076;2023-02-15T12:11:17;10.88;;;10.10;;
58567;SDS011;44354;46.192;-1.076;2023-02-15T12:13:59;9.38;;;8.90;;
58567;SDS011;44354;46.192;-1.076;2023-02-15T12:16:54;8.50;;;8.10;;
58567;SDS011;44354;46.192;-1.076;2023-02-15T12:22:05;8.32;;;7.93;;
58567;SDS011;44354;46.192;-1.076;2023-02-15T12:24:45;7.68;;;7.28;;
58567;SDS011;44354;46.192;-1.076;2023-02-15T12:29:53;9.07;;;8.32;;
58567;SDS011;44354;46.192;-1.076;2023-02-15T12:32:26;9.23;;;8.57;;
58567;SDS011;44354;46.192;-1.076;2023-02-15T12:34:59;8.20;;;7.70;;
58567;SDS011;44354;46.192;-1.076;2023-02-15T12:37:35;7.47;;;7.07;;
58567;SDS011;44354;46.192;-1.076;2023-02-15T12:40:10;7.20;;;6.70;;
58567;SDS011;44354;46.192;-1.076;2023-02-15T12:42:44;7.78;;;6.88;;
58567;SDS011;44354;46.192;-1.076;2023-02-15T12:48:09;9.07;;;8.57;;
58567;SDS011;44354;46.192;-1.076;2023-02-15T12:50:38;10.40;;;9.80;;
58567;SDS011;44354;46.192;-1.076;2023-02-15T12:55:56;9.43;;;8.93;;
58567;SDS011;44354;46.192;-1.076;2023-02-15T12:58:24;8.90;;;8.40;;
58567;SDS011;44354;46.192;-1.076;2023-02-15T13:01:09;9.38;;;8.88;;
58567;SDS011;44354;46.192;-1.076;2023-02-15T13:06:30;8.37;;;7.97;;
58567;SDS011;44354;46.192;-1.076;2023-02-15T13:11:43;8.18;;;7.78;;
58567;SDS011;44354;46.192;-1.076;2023-02-15T13:14:17;8.15;;;7.75;;
58567;SDS011;44354;46.192;-1.076;2023-02-15T13:16:44;7.88;;;7.47;;
58567;SDS011;44354;46.192;-1.076;2023-02-15T13:19:18;7.78;;;7.38;;
58567;SDS011;44354;46.192;-1.076;2023-02-15T13:21:48;8.68;;;7.97;;
58567;SDS011;44354;46.192;-1.076;2023-02-15T13:24:27;7.03;;;6.72;;
58567;SDS011;44354;46.192;-1.076;2023-02-15T13:26:58;7.82;;;7.43;;
58567;SDS011;44354;46.192;-1.076;2023-02-15T13:29:25;6.78;;;6.45;;
58567;SDS011;44354;46.192;-1.076;2023-02-15T13:31:54;7.45;;;7.05;;
58567;SDS011;44354;46.192;-1.076;2023-02-15T13:34:23;8.52;;;8.13;;
58567;SDS011;44354;46.192;-1.076;2023-02-15T13:42:30;8.88;;;8.27;;
58567;SDS011;44354;46.192;-1.076;2023-02-15T13:51:04;7.45;;;7.13;;
58567;SDS011;44354;46.192;-1.076;2023-02-15T13:58:58;7.03;;;6.72;;
58567;SDS011;44354;46.192;-1.076;2023-02-15T14:15:33;7.03;;;6.68;;
58567;SDS011;44354;46.192;-1.076;2023-02-15T14:29:07;7.82;;;7.43;;
58567;SDS011;44354;46.192;-1.076;2023-02-15T14:31:47;8.82;;;8.38;;
58567;SDS011;44354;46.192;-1.076;2023-02-15T14:34:23;7.53;;;7.13;;
58567;SDS011;44354;46.192;-1.076;2023-02-15T14:36:52;8.77;;;8.02;;
58567;SDS011;44354;46.192;-1.076;2023-02-15T14:39:35;10.45;;;8.95;;
58567;SDS011;44354;46.192;-1.076;2023-02-15T14:42:29;8.02;;;7.57;;
58567;SDS011;44354;46.192;-1.076;2023-02-15T14:45:12;8.70;;;8.10;;
58567;SDS011;44354;46.192;-1.076;2023-02-15T14:47:45;8.10;;;7.70;;
58567;SDS011;44354;46.192;-1.076;2023-02-15T14:55:48;10.18;;;9.15;;
58567;SDS011;44354;46.192;-1.076;2023-02-15T14:58:32;8.20;;;7.80;;
58567;SDS011;44354;46.192;-1.076;2023-02-15T15:01:07;8.77;;;8.27;;
58567;SDS011;44354;46.192;-1.076;2023-02-15T15:03:36;8.40;;;8.00;;
58567;SDS011;44354;46.192;-1.076;2023-02-15T15:08:49;9.02;;;8.52;;
58567;SDS011;44354;46.192;-1.076;2023-02-15T15:13:58;7.80;;;7.40;;
58567;SDS011;44354;46.192;-1.076;2023-02-15T15:16:59;8.63;;;8.23;;
58567;SDS011;44354;46.192;-1.076;2023-02-15T15:22:18;8.50;;;8.10;;
58567;SDS011;44354;46.192;-1.076;2023-02-15T15:24:51;7.82;;;7.43;;
58567;SDS011;44354;46.192;-1.076;2023-02-15T15:35:23;7.40;;;7.05;;
58567;SDS011;44354;46.192;-1.076;2023-02-15T15:43:41;8.05;;;7.65;;
58567;SDS011;44354;46.192;-1.076;2023-02-15T15:49:21;8.45;;;7.90;;
58567;SDS011;44354;46.192;-1.076;2023-02-15T15:51:52;10.50;;;9.82;;
58567;SDS011;44354;46.192;-1.076;2023-02-15T15:54:19;8.05;;;7.65;;
58567;SDS011;44354;46.192;-1.076;2023-02-15T15:56:54;17.77;;;10.40;;
58567;SDS011;44354;46.192;-1.076;2023-02-15T15:59:26;11.00;;;10.20;;
58567;SDS011;44354;46.192;-1.076;2023-02-15T16:01:55;9.25;;;8.75;;
58567;SDS011;44354;46.192;-1.076;2023-02-15T16:04:28;8.82;;;8.43;;
58567;SDS011;44354;46.192;-1.076;2023-02-15T16:06:56;10.20;;;9.70;;
58567;SDS011;44354;46.192;-1.076;2023-02-15T16:09:24;9.88;;;9.38;;
58567;SDS011;44354;46.192;-1.076;2023-02-15T16:11:58;9.65;;;9.15;;
58567;SDS011;44354;46.192;-1.076;2023-02-15T16:14:35;10.90;;;10.30;;
58567;SDS011;44354;46.192;-1.076;2023-02-15T16:17:36;9.25;;;8.82;;
58567;SDS011;44354;46.192;-1.076;2023-02-15T16:20:11;18.33;;;10.15;;
58567;SDS011;44354;46.192;-1.076;2023-02-15T16:25:49;10.50;;;10.00;;
58567;SDS011;44354;46.192;-1.076;2023-02-15T16:28:36;9.35;;;8.88;;
58567;SDS011;44354;46.192;-1.076;2023-02-15T16:31:07;10.43;;;9.90;;
58567;SDS011;44354;46.192;-1.076;2023-02-15T16:33:38;9.73;;;9.23;;
58567;SDS011;44354;46.192;-1.076;2023-02-15T16:36:06;10.00;;;9.50;;
58567;SDS011;44354;46.192;-1.076;2023-02-15T16:41:29;10.85;;;10.35;;
58567;SDS011;44354;46.192;-1.076;2023-02-15T16:43:56;9.70;;;9.20;;
58567;SDS011;44354;46.192;-1.076;2023-02-15T16:46:26;9.55;;;9.05;;
58567;SDS011;44354;46.192;-1.076;2023-02-15T16:48:56;9.10;;;8.70;;
58567;SDS011;44354;46.192;-1.076;2023-02-15T16:51:27;12.90;;;11.75;;
58567;SDS011;44354;46.192;-1.076;2023-02-15T16:53:55;10.63;;;10.13;;
58567;SDS011;44354;46.192;-1.076;2023-02-15T16:56:26;9.82;;;9.32;;
58567;SDS011;44354;46.192;-1.076;2023-02-15T16:58:57;11.38;;;10.77;;
58567;SDS011;44354;46.192;-1.076;2023-02-15T17:01:26;12.55;;;11.57;;
58567;SDS011;44354;46.192;-1.076;2023-02-15T17:04:11;10.73;;;10.23;;
58567;SDS011;44354;46.192;-1.076;2023-02-15T17:09:32;10.23;;;9.73;;
58567;SDS011;44354;46.192;-1.076;2023-02-15T17:11:58;11.20;;;10.65;;
58567;SDS011;44354;46.192;-1.076;2023-02-15T17:14:27;12.15;;;11.55;;
58567;SDS011;44354;46.192;-1.076;2023-02-15T17:17:00;10.80;;;10.30;;
58567;SDS011;44354;46.192;-1.076;2023-02-15T17:19:33;12.75;;;12.15;;
58567;SDS011;44354;46.192;-1.076;2023-02-15T17:22:31;11.68;;;11.07;;
58567;SDS011;44354;46.192;-1.076;2023-02-15T17:24:58;11.07;;;10.55;;
58567;SDS011;44354;46.192;-1.076;2023-02-15T17:27:26;11.13;;;10.60;;
58567;SDS011;44354;46.192;-1.076;2023-02-15T17:29:58;12.82;;;12.20;;
58567;SDS011;44354;46.192;-1.076;2023-02-15T17:32:27;12.73;;;12.13;;
58567;SDS011;44354;46.192;-1.076;2023-02-15T17:35:07;11.27;;;10.70;;
58567;SDS011;44354;46.192;-1.076;2023-02-15T17:37:50;12.25;;;11.65;;
58567;SDS011;44354;46.192;-1.076;2023-02-15T17:40:31;13.07;;;12.43;;
58567;SDS011;44354;46.192;-1.076;2023-02-15T17:43:00;11.13;;;10.60;;
58567;SDS011;44354;46.192;-1.076;2023-02-15T17:45:33;13.10;;;12.45;;
58567;SDS011;44354;46.192;-1.076;2023-02-15T17:48:02;12.15;;;11.55;;
58567;SDS011;44354;46.192;-1.076;2023-02-15T17:50:29;13.10;;;12.45;;